sensor_id;sensor_type;location;lat;lon;timestamp;temperature;humidity
22212;DHT22;11275;52.488;13.462;2023-02-26T00:01:15;1.10;99.90
22212;DHT22;11275;52.488;13.462;2023-02-26T00:03:47;1.10;99.90
22212;DHT22;11275;52.488;13.462;2023-02-26T00:06:13;1.10;99.90
22212;DHT22;11275;52.488;13.462;2023-02-26T00:08:38;1.10;99.90
22212;DHT22;11275;52.488;13.462;2023-02-26T00:11:08;1.10;99.90
22212;DHT22;11275;52.488;13.462;2023-02-26T00:13:35;1.20;99.90
22212;DHT22;11275;52.488;13.462;2023-02-26T00:16:00;1.30;99.90
22212;DHT22;11275;52.488;13.462;2023-02-26T00:18:26;1.30;99.90
22212;DHT22;11275;52.488;13.462;2023-02-26T00:20:52;1.30;99.90
22212;DHT22;11275;52.488;13.462;2023-02-26T00:23:18;1.30;99.90
22212;DHT22;11275;52.488;13.462;2023-02-26T00:25:44;1.40;99.90
22212;DHT22;11275;52.488;13.462;2023-02-26T00:28:09;1.30;99.90
22212;DHT22;11275;52.488;13.462;2023-02-26T00:30:35;1.30;99.90
22212;DHT22;11275;52.488;13.462;2023-02-26T00:33:01;1.40;99.90
22212;DHT22;11275;52.488;13.462;2023-02-26T00:35:27;1.40;99.90
22212;DHT22;11275;52.488;13.462;2023-02-26T00:42:58;1.40;99.90
22212;DHT22;11275;52.488;13.462;2023-02-26T00:45:24;1.40;99.90
22212;DHT22;11275;52.488;13.462;2023-02-26T00:50:34;1.30;99.90
22212;DHT22;11275;52.488;13.462;2023-02-26T00:53:07;1.30;99.90
22212;DHT22;11275;52.488;13.462;2023-02-26T00:55:35;1.40;99.90
22212;DHT22;11275;52.488;13.462;2023-02-26T00:58:01;1.40;99.90
22212;DHT22;11275;52.488;13.462;2023-02-26T01:00:27;1.30;99.90
22212;DHT22;11275;52.488;13.462;2023-02-26T01:02:55;1.30;99.90
22212;DHT22;11275;52.488;13.462;2023-02-26T01:05:20;1.30;99.90
22212;DHT22;11275;52.488;13.462;2023-02-26T01:07:50;1.30;99.90
22212;DHT22;11275;52.488;13.462;2023-02-26T01:10:19;1.30;99.90
22212;DHT22;11275;52.488;13.462;2023-02-26T01:12:44;1.30;99.90
22212;DHT22;11275;52.488;13.462;2023-02-26T01:15:10;1.30;99.90
22212;DHT22;11275;52.488;13.462;2023-02-26T01:20:09;1.50;99.90
22212;DHT22;11275;52.488;13.462;2023-02-26T01:27:45;1.40;99.90
22212;DHT22;11275;52.488;13.462;2023-02-26T01:30:11;1.40;99.90
22212;DHT22;11275;52.488;13.462;2023-02-26T01:35:51;1.50;99.90
22212;DHT22;11275;52.488;13.462;2023-02-26T01:42:45;1.60;99.90
22212;DHT22;11275;52.488;13.462;2023-02-26T01:45:15;1.60;99.90
22212;DHT22;11275;52.488;13.462;2023-02-26T01:47:47;1.60;99.90
22212;DHT22;11275;52.488;13.462;2023-02-26T01:50:15;1.60;99.90
22212;DHT22;11275;52.488;13.462;2023-02-26T01:55:13;1.50;99.90
22212;DHT22;11275;52.488;13.462;2023-02-26T01:57:39;1.50;99.90
22212;DHT22;11275;52.488;13.462;2023-02-26T02:00:05;1.40;99.90
22212;DHT22;11275;52.488;13.462;2023-02-26T02:02:31;1.40;99.90
22212;DHT22;11275;52.488;13.462;2023-02-26T02:04:56;1.40;99.90
22212;DHT22;11275;52.488;13.462;2023-02-26T02:07:23;1.50;99.90
22212;DHT22;11275;52.488;13.462;2023-02-26T02:09:49;1.50;99.90
22212;DHT22;11275;52.488;13.462;2023-02-26T02:17:37;1.50;99.90
22212;DHT22;11275;52.488;13.462;2023-02-26T02:22:52;1.60;99.90
22212;DHT22;11275;52.488;13.462;2023-02-26T02:33:11;1.50;99.90
22212;DHT22;11275;52.488;13.462;2023-02-26T02:35:40;1.50;99.90
22212;DHT22;11275;52.488;13.462;2023-02-26T02:38:29;1.70;99.90
22212;DHT22;11275;52.488;13.462;2023-02-26T02:40:54;1.70;99.90
22212;DHT22;11275;52.488;13.462;2023-02-26T02:43:22;1.70;99.90
22212;DHT22;11275;52.488;13.462;2023-02-26T02:48:16;1.70;99.90
22212;DHT22;11275;52.488;13.462;2023-02-26T02:50:46;1.60;99.90
22212;DHT22;11275;52.488;13.462;2023-02-26T02:53:20;1.70;99.90
22212;DHT22;11275;52.488;13.462;2023-02-26T02:55:57;1.70;99.90
22212;DHT22;11275;52.488;13.462;2023-02-26T02:58:25;1.80;99.90
22212;DHT22;11275;52.488;13.462;2023-02-26T03:00:54;1.80;99.90
22212;DHT22;11275;52.488;13.462;2023-02-26T03:05:52;1.70;99.90
22212;DHT22;11275;52.488;13.462;2023-02-26T03:08:22;1.60;99.90
22212;DHT22;11275;52.488;13.462;2023-02-26T03:10:48;1.60;99.90
22212;DHT22;11275;52.488;13.462;2023-02-26T03:13:15;1.60;99.90
22212;DHT22;11275;52.488;13.462;2023-02-26T03:15:45;1.60;99.90
22212;DHT22;11275;52.488;13.462;2023-02-26T03:18:17;1.70;99.90
22212;DHT22;11275;52.488;13.462;2023-02-26T03:23:59;1.60;99.90
22212;DHT22;11275;52.488;13.462;2023-02-26T03:26:28;1.50;99.90
22212;DHT22;11275;52.488;13.462;2023-02-26T03:29:08;1.60;99.90
22212;DHT22;11275;52.488;13.462;2023-02-26T03:31:36;1.50;99.90
22212;DHT22;11275;52.488;13.462;2023-02-26T03:34:15;1.50;99.90
22212;DHT22;11275;52.488;13.462;2023-02-26T03:36:47;1.60;99.90
22212;DHT22;11275;52.488;13.462;2023-02-26T03:39:18;1.50;99.90
22212;DHT22;11275;52.488;13.462;2023-02-26T03:42:01;1.40;99.90
22212;DHT22;11275;52.488;13.462;2023-02-26T03:46:55;1.40;99.90
22212;DHT22;11275;52.488;13.462;2023-02-26T03:49:26;1.40;99.90
22212;DHT22;11275;52.488;13.462;2023-02-26T03:51:52;1.40;99.90
22212;DHT22;11275;52.488;13.462;2023-02-26T03:54:20;1.50;99.90
22212;DHT22;11275;52.488;13.462;2023-02-26T03:56:50;1.60;99.90
22212;DHT22;11275;52.488;13.462;2023-02-26T03:59:16;1.50;99.90
22212;DHT22;11275;52.488;13.462;2023-02-26T04:04:23;1.50;99.90
22212;DHT22;11275;52.488;13.462;2023-02-26T04:06:50;1.50;99.90
22212;DHT22;11275;52.488;13.462;2023-02-26T04:09:18;1.50;99.90
22212;DHT22;11275;52.488;13.462;2023-02-26T04:11:44;1.40;99.90
22212;DHT22;11275;52.488;13.462;2023-02-26T04:14:10;1.50;99.90
22212;DHT22;11275;52.488;13.462;2023-02-26T04:16:35;1.50;99.90
22212;DHT22;11275;52.488;13.462;2023-02-26T04:19:01;1.40;99.90
22212;DHT22;11275;52.488;13.462;2023-02-26T04:21:27;1.40;99.90
22212;DHT22;11275;52.488;13.462;2023-02-26T04:23:52;1.40;99.90
22212;DHT22;11275;52.488;13.462;2023-02-26T04:26:18;1.40;99.90
22212;DHT22;11275;52.488;13.462;2023-02-26T04:28:43;1.40;99.90
22212;DHT22;11275;52.488;13.462;2023-02-26T04:31:09;1.40;99.90
22212;DHT22;11275;52.488;13.462;2023-02-26T04:33:35;1.40;99.90
22212;DHT22;11275;52.488;13.462;2023-02-26T04:36:00;1.40;99.90
22212;DHT22;11275;52.488;13.462;2023-02-26T04:38:26;1.40;99.90
22212;DHT22;11275;52.488;13.462;2023-02-26T04:40:52;1.40;99.90
22212;DHT22;11275;52.488;13.462;2023-02-26T04:43:18;1.40;99.90
22212;DHT22;11275;52.488;13.462;2023-02-26T04:45:47;1.40;99.90
22212;DHT22;11275;52.488;13.462;2023-02-26T04:48:13;1.30;99.90
22212;DHT22;11275;52.488;13.462;2023-02-26T04:50:39;1.30;99.90
22212;DHT22;11275;52.488;13.462;2023-02-26T04:53:04;1.30;99.90
22212;DHT22;11275;52.488;13.462;2023-02-26T04:55:30;1.30;99.90
22212;DHT22;11275;52.488;13.462;2023-02-26T04:57:55;1.30;99.90
22212;DHT22;11275;52.488;13.462;2023-02-26T05:00:21;1.40;99.90
22212;DHT22;11275;52.488;13.462;2023-02-26T05:02:46;1.30;99.90
22212;DHT22;11275;52.488;13.462;2023-02-26T05:05:12;1.30;99.90
22212;DHT22;11275;52.488;13.462;2023-02-26T05:07:37;1.30;99.90
22212;DHT22;11275;52.488;13.462;2023-02-26T05:10:04;1.30;99.90
22212;DHT22;11275;52.488;13.462;2023-02-26T05:12:32;1.30;99.90
22212;DHT22;11275;52.488;13.462;2023-02-26T05:14:58;1.30;99.90
22212;DHT22;11275;52.488;13.462;2023-02-26T05:17:26;1.30;99.90
22212;DHT22;11275;52.488;13.462;2023-02-26T05:19:51;1.30;99.90
22212;DHT22;11275;52.488;13.462;2023-02-26T05:22:17;1.30;99.90
22212;DHT22;11275;52.488;13.462;2023-02-26T05:24:42;1.30;99.90
22212;DHT22;11275;52.488;13.462;2023-02-26T05:27:08;1.40;99.90
22212;DHT22;11275;52.488;13.462;2023-02-26T05:29:34;1.30;99.90
22212;DHT22;11275;52.488;13.462;2023-02-26T05:31:59;1.30;99.90
22212;DHT22;11275;52.488;13.462;2023-02-26T05:34:25;1.30;99.90
22212;DHT22;11275;52.488;13.462;2023-02-26T05:36:50;1.40;99.90
22212;DHT22;11275;52.488;13.462;2023-02-26T05:39:16;1.30;99.90
22212;DHT22;11275;52.488;13.462;2023-02-26T05:41:42;1.30;99.90
22212;DHT22;11275;52.488;13.462;2023-02-26T05:44:07;1.20;99.90
22212;DHT22;11275;52.488;13.462;2023-02-26T05:46:33;1.30;99.90
22212;DHT22;11275;52.488;13.462;2023-02-26T05:48:58;1.30;99.90
22212;DHT22;11275;52.488;13.462;2023-02-26T05:51:24;1.40;99.90
22212;DHT22;11275;52.488;13.462;2023-02-26T05:53:50;1.40;99.90
22212;DHT22;11275;52.488;13.462;2023-02-26T05:56:15;1.50;99.90
22212;DHT22;11275;52.488;13.462;2023-02-26T05:58:41;1.50;99.90
22212;DHT22;11275;52.488;13.462;2023-02-26T06:01:06;1.60;99.90
22212;DHT22;11275;52.488;13.462;2023-02-26T06:03:32;1.60;99.90
22212;DHT22;11275;52.488;13.462;2023-02-26T06:05:57;1.60;99.90
22212;DHT22;11275;52.488;13.462;2023-02-26T06:08:23;1.60;99.90
22212;DHT22;11275;52.488;13.462;2023-02-26T06:10:49;1.50;99.90
22212;DHT22;11275;52.488;13.462;2023-02-26T06:13:15;1.50;99.90
22212;DHT22;11275;52.488;13.462;2023-02-26T06:15:41;1.50;99.90
22212;DHT22;11275;52.488;13.462;2023-02-26T06:18:06;1.60;99.90
22212;DHT22;11275;52.488;13.462;2023-02-26T06:20:33;1.60;99.90
22212;DHT22;11275;52.488;13.462;2023-02-26T06:22:58;1.60;99.90
22212;DHT22;11275;52.488;13.462;2023-02-26T06:25:24;1.50;99.90
22212;DHT22;11275;52.488;13.462;2023-02-26T06:27:50;1.50;99.90
22212;DHT22;11275;52.488;13.462;2023-02-26T06:30:15;1.60;99.90
22212;DHT22;11275;52.488;13.462;2023-02-26T06:32:42;1.70;99.90
22212;DHT22;11275;52.488;13.462;2023-02-26T06:35:08;1.60;99.90
22212;DHT22;11275;52.488;13.462;2023-02-26T06:37:34;1.70;99.90
22212;DHT22;11275;52.488;13.462;2023-02-26T06:40:03;1.80;99.90
22212;DHT22;11275;52.488;13.462;2023-02-26T06:42:28;1.70;99.90
22212;DHT22;11275;52.488;13.462;2023-02-26T06:44:54;1.70;99.90
22212;DHT22;11275;52.488;13.462;2023-02-26T06:47:21;1.70;99.90
22212;DHT22;11275;52.488;13.462;2023-02-26T06:49:47;1.70;99.90
22212;DHT22;11275;52.488;13.462;2023-02-26T06:52:13;1.90;99.90
22212;DHT22;11275;52.488;13.462;2023-02-26T06:54:39;2.00;99.90
22212;DHT22;11275;52.488;13.462;2023-02-26T06:57:04;2.00;99.90
22212;DHT22;11275;52.488;13.462;2023-02-26T06:59:30;1.90;99.90
22212;DHT22;11275;52.488;13.462;2023-02-26T07:01:55;1.80;99.90
22212;DHT22;11275;52.488;13.462;2023-02-26T07:04:21;1.70;99.90
22212;DHT22;11275;52.488;13.462;2023-02-26T07:06:47;1.70;99.90
22212;DHT22;11275;52.488;13.462;2023-02-26T07:09:13;1.70;99.90
22212;DHT22;11275;52.488;13.462;2023-02-26T07:11:38;1.80;99.90
22212;DHT22;11275;52.488;13.462;2023-02-26T07:14:04;1.80;99.90
22212;DHT22;11275;52.488;13.462;2023-02-26T07:16:29;1.70;99.90
22212;DHT22;11275;52.488;13.462;2023-02-26T07:18:55;1.70;99.90
22212;DHT22;11275;52.488;13.462;2023-02-26T07:21:20;1.80;99.90
22212;DHT22;11275;52.488;13.462;2023-02-26T07:23:46;1.90;99.90
22212;DHT22;11275;52.488;13.462;2023-02-26T07:26:11;2.00;99.90
22212;DHT22;11275;52.488;13.462;2023-02-26T07:28:37;2.10;99.90
22212;DHT22;11275;52.488;13.462;2023-02-26T07:31:02;2.10;99.90
22212;DHT22;11275;52.488;13.462;2023-02-26T07:33:28;1.90;99.90
22212;DHT22;11275;52.488;13.462;2023-02-26T07:35:56;1.90;99.90
22212;DHT22;11275;52.488;13.462;2023-02-26T07:38:21;1.90;99.90
22212;DHT22;11275;52.488;13.462;2023-02-26T07:40:49;1.90;99.90
22212;DHT22;11275;52.488;13.462;2023-02-26T07:43:15;1.70;99.90
22212;DHT22;11275;52.488;13.462;2023-02-26T07:45:40;1.70;99.90
22212;DHT22;11275;52.488;13.462;2023-02-26T07:48:06;1.70;99.90
22212;DHT22;11275;52.488;13.462;2023-02-26T07:50:31;1.70;99.90
22212;DHT22;11275;52.488;13.462;2023-02-26T07:52:57;1.80;99.90
22212;DHT22;11275;52.488;13.462;2023-02-26T07:55:23;2.00;99.90
22212;DHT22;11275;52.488;13.462;2023-02-26T07:57:48;2.00;99.90
22212;DHT22;11275;52.488;13.462;2023-02-26T08:00:14;1.90;99.90
22212;DHT22;11275;52.488;13.462;2023-02-26T08:02:40;1.90;99.90
22212;DHT22;11275;52.488;13.462;2023-02-26T08:05:06;2.00;99.90
22212;DHT22;11275;52.488;13.462;2023-02-26T08:07:31;1.90;99.90
22212;DHT22;11275;52.488;13.462;2023-02-26T08:09:57;1.90;99.90
22212;DHT22;11275;52.488;13.462;2023-02-26T08:12:23;1.90;99.90
22212;DHT22;11275;52.488;13.462;2023-02-26T08:14:48;1.90;99.90
22212;DHT22;11275;52.488;13.462;2023-02-26T08:17:14;1.90;99.90
22212;DHT22;11275;52.488;13.462;2023-02-26T08:19:39;2.00;99.90
22212;DHT22;11275;52.488;13.462;2023-02-26T08:22:05;2.00;99.90
22212;DHT22;11275;52.488;13.462;2023-02-26T08:24:31;1.90;99.90
22212;DHT22;11275;52.488;13.462;2023-02-26T08:26:56;1.90;99.90
22212;DHT22;11275;52.488;13.462;2023-02-26T08:29:22;1.90;99.90
22212;DHT22;11275;52.488;13.462;2023-02-26T08:31:47;1.90;99.90
22212;DHT22;11275;52.488;13.462;2023-02-26T08:34:13;2.00;99.90
22212;DHT22;11275;52.488;13.462;2023-02-26T08:36:38;2.00;99.90
22212;DHT22;11275;52.488;13.462;2023-02-26T08:39:04;1.90;99.90
22212;DHT22;11275;52.488;13.462;2023-02-26T08:41:31;1.90;99.90
22212;DHT22;11275;52.488;13.462;2023-02-26T08:43:58;2.10;99.90
22212;DHT22;11275;52.488;13.462;2023-02-26T08:46:23;2.60;99.90
22212;DHT22;11275;52.488;13.462;2023-02-26T08:48:49;3.30;99.90
22212;DHT22;11275;52.488;13.462;2023-02-26T08:51:14;3.30;99.90
22212;DHT22;11275;52.488;13.462;2023-02-26T08:53:40;3.30;99.90
22212;DHT22;11275;52.488;13.462;2023-02-26T08:56:06;3.40;99.90
22212;DHT22;11275;52.488;13.462;2023-02-26T08:58:31;3.00;99.90
22212;DHT22;11275;52.488;13.462;2023-02-26T09:00:57;2.60;99.90
22212;DHT22;11275;52.488;13.462;2023-02-26T09:03:22;2.60;99.90
22212;DHT22;11275;52.488;13.462;2023-02-26T09:05:49;2.70;99.90
22212;DHT22;11275;52.488;13.462;2023-02-26T09:08:15;2.60;99.90
22212;DHT22;11275;52.488;13.462;2023-02-26T09:10:40;2.60;99.90
22212;DHT22;11275;52.488;13.462;2023-02-26T09:13:06;2.50;99.90
22212;DHT22;11275;52.488;13.462;2023-02-26T09:15:32;2.50;99.90
22212;DHT22;11275;52.488;13.462;2023-02-26T09:17:57;2.50;99.90
22212;DHT22;11275;52.488;13.462;2023-02-26T09:20:25;2.50;99.90
22212;DHT22;11275;52.488;13.462;2023-02-26T09:22:51;2.60;99.90
22212;DHT22;11275;52.488;13.462;2023-02-26T09:25:17;2.60;99.90
22212;DHT22;11275;52.488;13.462;2023-02-26T09:27:43;2.60;99.90
22212;DHT22;11275;52.488;13.462;2023-02-26T09:30:09;2.70;99.90
22212;DHT22;11275;52.488;13.462;2023-02-26T09:32:34;2.80;99.90
22212;DHT22;11275;52.488;13.462;2023-02-26T09:35:00;2.80;99.90
22212;DHT22;11275;52.488;13.462;2023-02-26T09:37:27;2.80;99.90
22212;DHT22;11275;52.488;13.462;2023-02-26T09:39:52;2.80;99.90
22212;DHT22;11275;52.488;13.462;2023-02-26T09:44:43;2.60;99.90
22212;DHT22;11275;52.488;13.462;2023-02-26T09:52:56;2.70;99.90
22212;DHT22;11275;52.488;13.462;2023-02-26T09:57:50;2.60;99.90
22212;DHT22;11275;52.488;13.462;2023-02-26T10:00:40;2.60;99.90
22212;DHT22;11275;52.488;13.462;2023-02-26T10:03:20;2.80;99.90
22212;DHT22;11275;52.488;13.462;2023-02-26T10:08:27;3.00;99.90
22212;DHT22;11275;52.488;13.462;2023-02-26T10:13:50;3.40;99.90
22212;DHT22;11275;52.488;13.462;2023-02-26T10:16:20;3.60;99.90
22212;DHT22;11275;52.488;13.462;2023-02-26T10:18:50;3.70;99.90
22212;DHT22;11275;52.488;13.462;2023-02-26T10:21:29;3.80;99.90
22212;DHT22;11275;52.488;13.462;2023-02-26T10:23:58;3.80;99.90
22212;DHT22;11275;52.488;13.462;2023-02-26T10:26:35;3.80;99.90
22212;DHT22;11275;52.488;13.462;2023-02-26T10:29:14;3.70;99.90
22212;DHT22;11275;52.488;13.462;2023-02-26T10:32:00;3.60;99.90
22212;DHT22;11275;52.488;13.462;2023-02-26T10:41:47;4.10;99.90
22212;DHT22;11275;52.488;13.462;2023-02-26T10:44:19;4.00;99.90
22212;DHT22;11275;52.488;13.462;2023-02-26T10:46:50;3.90;99.90
22212;DHT22;11275;52.488;13.462;2023-02-26T10:51:46;3.80;99.90
22212;DHT22;11275;52.488;13.462;2023-02-26T10:54:20;3.90;99.90
22212;DHT22;11275;52.488;13.462;2023-02-26T10:56:47;3.90;99.90
22212;DHT22;11275;52.488;13.462;2023-02-26T10:59:12;3.90;99.90
22212;DHT22;11275;52.488;13.462;2023-02-26T11:01:38;4.10;99.90
22212;DHT22;11275;52.488;13.462;2023-02-26T11:06:30;4.20;99.90
22212;DHT22;11275;52.488;13.462;2023-02-26T11:08:57;4.20;99.90
22212;DHT22;11275;52.488;13.462;2023-02-26T11:14:08;4.20;99.90
22212;DHT22;11275;52.488;13.462;2023-02-26T11:16:34;4.50;99.90
22212;DHT22;11275;52.488;13.462;2023-02-26T11:19:05;4.50;99.90
22212;DHT22;11275;52.488;13.462;2023-02-26T11:21:36;4.50;99.90
22212;DHT22;11275;52.488;13.462;2023-02-26T11:24:07;4.40;99.90
22212;DHT22;11275;52.488;13.462;2023-02-26T11:26:35;4.50;99.90
22212;DHT22;11275;52.488;13.462;2023-02-26T11:29:02;4.40;99.90
22212;DHT22;11275;52.488;13.462;2023-02-26T11:31:28;4.30;99.90
22212;DHT22;11275;52.488;13.462;2023-02-26T11:34:03;4.40;99.90
22212;DHT22;11275;52.488;13.462;2023-02-26T11:36:30;4.70;99.90
22212;DHT22;11275;52.488;13.462;2023-02-26T11:38:57;4.70;99.90
22212;DHT22;11275;52.488;13.462;2023-02-26T11:41:25;4.60;99.90
22212;DHT22;11275;52.488;13.462;2023-02-26T11:43:58;4.40;99.90
22212;DHT22;11275;52.488;13.462;2023-02-26T11:46:25;4.20;99.90
22212;DHT22;11275;52.488;13.462;2023-02-26T11:48:51;4.30;99.90
22212;DHT22;11275;52.488;13.462;2023-02-26T11:51:18;4.40;99.90
22212;DHT22;11275;52.488;13.462;2023-02-26T11:53:48;4.60;99.90
22212;DHT22;11275;52.488;13.462;2023-02-26T11:56:21;4.60;99.90
22212;DHT22;11275;52.488;13.462;2023-02-26T11:58:49;4.60;99.90
22212;DHT22;11275;52.488;13.462;2023-02-26T12:01:16;4.50;99.90
22212;DHT22;11275;52.488;13.462;2023-02-26T12:03:47;4.50;99.90
22212;DHT22;11275;52.488;13.462;2023-02-26T12:06:17;4.50;99.90
22212;DHT22;11275;52.488;13.462;2023-02-26T12:08:43;4.70;99.90
22212;DHT22;11275;52.488;13.462;2023-02-26T12:18:43;4.20;99.60
22212;DHT22;11275;52.488;13.462;2023-02-26T12:26:33;4.20;99.60
22212;DHT22;11275;52.488;13.462;2023-02-26T12:29:13;4.40;99.60
22212;DHT22;11275;52.488;13.462;2023-02-26T12:41:56;4.80;98.20
22212;DHT22;11275;52.488;13.462;2023-02-26T12:47:15;4.30;99.30
22212;DHT22;11275;52.488;13.462;2023-02-26T12:52:47;4.20;99.00
22212;DHT22;11275;52.488;13.462;2023-02-26T12:55:20;4.30;98.70
22212;DHT22;11275;52.488;13.462;2023-02-26T13:03:13;4.50;99.60
22212;DHT22;11275;52.488;13.462;2023-02-26T13:08:26;4.50;98.30
22212;DHT22;11275;52.488;13.462;2023-02-26T13:11:10;4.40;99.50
22212;DHT22;11275;52.488;13.462;2023-02-26T13:16:17;4.40;97.50
22212;DHT22;11275;52.488;13.462;2023-02-26T13:21:19;4.50;97.80
22212;DHT22;11275;52.488;13.462;2023-02-26T13:23:50;4.70;98.20
22212;DHT22;11275;52.488;13.462;2023-02-26T13:26:17;5.00;97.60
22212;DHT22;11275;52.488;13.462;2023-02-26T13:28:49;5.00;97.30
22212;DHT22;11275;52.488;13.462;2023-02-26T13:31:25;4.60;97.50
22212;DHT22;11275;52.488;13.462;2023-02-26T13:33:52;4.40;97.60
22212;DHT22;11275;52.488;13.462;2023-02-26T13:36:19;4.30;96.70
22212;DHT22;11275;52.488;13.462;2023-02-26T13:44:32;4.20;98.70
22212;DHT22;11275;52.488;13.462;2023-02-26T13:47:14;4.40;99.70
22212;DHT22;11275;52.488;13.462;2023-02-26T13:52:23;4.60;99.70
22212;DHT22;11275;52.488;13.462;2023-02-26T13:54:49;4.50;99.30
22212;DHT22;11275;52.488;13.462;2023-02-26T13:57:32;4.30;97.50
22212;DHT22;11275;52.488;13.462;2023-02-26T14:02:42;4.10;98.20
22212;DHT22;11275;52.488;13.462;2023-02-26T14:05:09;4.10;98.30
22212;DHT22;11275;52.488;13.462;2023-02-26T14:07:52;4.30;98.90
22212;DHT22;11275;52.488;13.462;2023-02-26T14:10:25;4.30;98.10
22212;DHT22;11275;52.488;13.462;2023-02-26T14:15:55;4.30;97.50
22212;DHT22;11275;52.488;13.462;2023-02-26T14:18:29;4.30;97.50
22212;DHT22;11275;52.488;13.462;2023-02-26T14:23:40;4.50;95.20
22212;DHT22;11275;52.488;13.462;2023-02-26T14:26:10;4.50;96.00
22212;DHT22;11275;52.488;13.462;2023-02-26T14:28:44;4.50;94.80
22212;DHT22;11275;52.488;13.462;2023-02-26T14:33:41;4.50;95.90
22212;DHT22;11275;52.488;13.462;2023-02-26T14:36:16;4.50;96.10
22212;DHT22;11275;52.488;13.462;2023-02-26T14:38:42;4.50;95.70
22212;DHT22;11275;52.488;13.462;2023-02-26T14:43:58;4.50;96.30
22212;DHT22;11275;52.488;13.462;2023-02-26T14:46:24;4.30;96.60
22212;DHT22;11275;52.488;13.462;2023-02-26T14:48:50;4.30;96.50
22212;DHT22;11275;52.488;13.462;2023-02-26T15:01:11;4.30;95.80
22212;DHT22;11275;52.488;13.462;2023-02-26T15:14:08;3.80;94.40
22212;DHT22;11275;52.488;13.462;2023-02-26T15:24:35;4.10;94.60
22212;DHT22;11275;52.488;13.462;2023-02-26T15:27:01;4.20;93.90
22212;DHT22;11275;52.488;13.462;2023-02-26T15:29:32;4.30;94.80
22212;DHT22;11275;52.488;13.462;2023-02-26T15:32:05;4.50;95.10
22212;DHT22;11275;52.488;13.462;2023-02-26T15:34:31;4.70;94.20
22212;DHT22;11275;52.488;13.462;2023-02-26T15:36:58;4.70;94.10
22212;DHT22;11275;52.488;13.462;2023-02-26T15:39:24;4.60;94.20
22212;DHT22;11275;52.488;13.462;2023-02-26T15:41:51;4.60;94.50
22212;DHT22;11275;52.488;13.462;2023-02-26T15:44:24;4.40;93.40
22212;DHT22;11275;52.488;13.462;2023-02-26T15:47:01;4.30;93.80
22212;DHT22;11275;52.488;13.462;2023-02-26T15:49:37;4.10;93.50
22212;DHT22;11275;52.488;13.462;2023-02-26T15:52:03;4.00;94.10
22212;DHT22;11275;52.488;13.462;2023-02-26T15:54:33;3.90;94.20
22212;DHT22;11275;52.488;13.462;2023-02-26T15:57:00;3.90;94.50
22212;DHT22;11275;52.488;13.462;2023-02-26T15:59:27;3.90;94.60
22212;DHT22;11275;52.488;13.462;2023-02-26T16:01:53;3.80;94.40
22212;DHT22;11275;52.488;13.462;2023-02-26T16:04:20;3.70;94.60
22212;DHT22;11275;52.488;13.462;2023-02-26T16:06:51;3.60;94.80
22212;DHT22;11275;52.488;13.462;2023-02-26T16:09:26;3.60;94.90
22212;DHT22;11275;52.488;13.462;2023-02-26T16:11:52;3.60;95.40
22212;DHT22;11275;52.488;13.462;2023-02-26T16:14:23;3.50;95.60
22212;DHT22;11275;52.488;13.462;2023-02-26T16:16:51;3.60;95.90
22212;DHT22;11275;52.488;13.462;2023-02-26T16:19:18;3.50;95.80
22212;DHT22;11275;52.488;13.462;2023-02-26T16:21:45;3.50;95.90
22212;DHT22;11275;52.488;13.462;2023-02-26T16:24:15;3.50;95.80
22212;DHT22;11275;52.488;13.462;2023-02-26T16:26:43;3.40;96.00
22212;DHT22;11275;52.488;13.462;2023-02-26T16:29:17;3.40;96.40
22212;DHT22;11275;52.488;13.462;2023-02-26T16:31:44;3.40;96.10
22212;DHT22;11275;52.488;13.462;2023-02-26T16:34:27;3.40;96.30
22212;DHT22;11275;52.488;13.462;2023-02-26T16:36:54;3.40;96.40
22212;DHT22;11275;52.488;13.462;2023-02-26T16:39:24;3.40;96.40
22212;DHT22;11275;52.488;13.462;2023-02-26T16:42:35;3.40;97.10
22212;DHT22;11275;52.488;13.462;2023-02-26T16:44:46;3.40;97.10
22212;DHT22;11275;52.488;13.462;2023-02-26T16:47:13;3.40;97.20
22212;DHT22;11275;52.488;13.462;2023-02-26T16:49:39;3.30;97.40
22212;DHT22;11275;52.488;13.462;2023-02-26T16:52:05;3.30;97.80
22212;DHT22;11275;52.488;13.462;2023-02-26T16:54:33;3.30;98.00
22212;DHT22;11275;52.488;13.462;2023-02-26T16:57:04;3.40;98.50
22212;DHT22;11275;52.488;13.462;2023-02-26T16:59:31;3.40;98.60
22212;DHT22;11275;52.488;13.462;2023-02-26T17:02:00;3.30;98.50
22212;DHT22;11275;52.488;13.462;2023-02-26T17:04:36;3.20;98.60
22212;DHT22;11275;52.488;13.462;2023-02-26T17:07:04;3.20;98.60
22212;DHT22;11275;52.488;13.462;2023-02-26T17:14:37;3.10;99.20
22212;DHT22;11275;52.488;13.462;2023-02-26T17:17:05;3.10;99.40
22212;DHT22;11275;52.488;13.462;2023-02-26T17:19:30;3.10;99.50
22212;DHT22;11275;52.488;13.462;2023-02-26T17:21:56;3.10;99.70
22212;DHT22;11275;52.488;13.462;2023-02-26T17:24:25;3.20;99.60
22212;DHT22;11275;52.488;13.462;2023-02-26T17:26:53;3.20;99.90
22212;DHT22;11275;52.488;13.462;2023-02-26T17:29:21;3.30;99.90
22212;DHT22;11275;52.488;13.462;2023-02-26T17:31:48;3.50;99.90
22212;DHT22;11275;52.488;13.462;2023-02-26T17:34:14;3.60;99.90
22212;DHT22;11275;52.488;13.462;2023-02-26T17:36:39;3.70;99.90
22212;DHT22;11275;52.488;13.462;2023-02-26T17:39:05;3.70;99.90
22212;DHT22;11275;52.488;13.462;2023-02-26T17:41:30;3.70;99.90
22212;DHT22;11275;52.488;13.462;2023-02-26T17:43:57;3.60;99.80
22212;DHT22;11275;52.488;13.462;2023-02-26T17:46:23;3.60;99.90
22212;DHT22;11275;52.488;13.462;2023-02-26T17:48:48;3.60;99.90
22212;DHT22;11275;52.488;13.462;2023-02-26T17:51:14;3.50;99.90
22212;DHT22;11275;52.488;13.462;2023-02-26T17:53:41;3.30;99.90
22212;DHT22;11275;52.488;13.462;2023-02-26T17:56:10;3.30;99.90
22212;DHT22;11275;52.488;13.462;2023-02-26T17:58:35;3.20;99.90
22212;DHT22;11275;52.488;13.462;2023-02-26T18:01:01;3.10;99.90
22212;DHT22;11275;52.488;13.462;2023-02-26T18:03:28;3.10;99.90
22212;DHT22;11275;52.488;13.462;2023-02-26T18:05:54;3.00;99.90
22212;DHT22;11275;52.488;13.462;2023-02-26T18:08:21;2.90;99.90
22212;DHT22;11275;52.488;13.462;2023-02-26T18:10:46;2.90;99.90
22212;DHT22;11275;52.488;13.462;2023-02-26T18:13:12;2.80;99.90
22212;DHT22;11275;52.488;13.462;2023-02-26T18:15:38;2.70;99.90
22212;DHT22;11275;52.488;13.462;2023-02-26T18:18:03;2.70;99.90
22212;DHT22;11275;52.488;13.462;2023-02-26T18:20:30;2.70;99.90
22212;DHT22;11275;52.488;13.462;2023-02-26T18:22:56;2.70;99.90
22212;DHT22;11275;52.488;13.462;2023-02-26T18:25:21;2.60;99.90
22212;DHT22;11275;52.488;13.462;2023-02-26T18:27:48;2.60;99.90
22212;DHT22;11275;52.488;13.462;2023-02-26T18:30:22;2.60;99.90
22212;DHT22;11275;52.488;13.462;2023-02-26T18:32:48;2.50;99.90
22212;DHT22;11275;52.488;13.462;2023-02-26T18:35:13;2.50;99.90
22212;DHT22;11275;52.488;13.462;2023-02-26T18:37:42;2.50;99.90